• Join FlightAware (Why Join?)
  • Login
  • US Flag 
01:06AM EDT


 

Airport Tracker/Info


-or-


 

Live Flight TrackerFlight Track Log ✈ IBE6651 ✈ 26-Jun-2013 ✈ LEMD / MAD - SPIM / LIM

Flight Track Log - Related Links

Times and Time Zones

All times are in EDT time to prevent confusion due to time zone crossing. See the IBE6651 flight status page for this flight to view local times or setup timezone preferences in your user account.

Time Position Orientation Groundspeed Altitude Reporting Facility
EDT Latitude Longitude Course Direction KTS MPH feet Rate Location/Type
06:53AM 40.4970 -3.5690 92° East 10 12  Level FlightAware
07:01AM 40.4930 -3.5700 180° South 23 26 180 Level FlightAware
07:02AM 40.4930 -3.5710 270° West 25 29 300 Level FlightAware
07:02AM 40.4920 -3.5710 180° South 24 28 300 Level FlightAware
07:05AM 40.6425 -3.8944 306° West  Level FlightAware Approximate
07:06AM 40.7171 -4.0312 306° West  Level FlightAware Approximate
07:07AM 40.7917 -4.1681 306° West  Level FlightAware Approximate
07:08AM 40.8628 -4.3084 304° West  Level FlightAware Approximate
07:09AM 40.9332 -4.4494 304° West  Level FlightAware Approximate
07:10AM 41.0037 -4.5905 304° West  Level FlightAware Approximate
07:11AM 41.0742 -4.7318 304° West  Level FlightAware Approximate
07:12AM 41.1449 -4.8730 304° West  Level FlightAware Approximate
07:12AM 40.5700 -3.5760 358° North 197 227 3,500  Level FlightAware
07:12AM 40.5880 -3.5750 North 196 226 4,100 1,500 Climbing FlightAware
07:12AM 40.5990 -3.5720 12° North 194 223 4,300 1,200 Climbing FlightAware
07:13AM 40.6220 -3.5580 25° Northeast 199 229 4,900 1,260 Climbing FlightAware
07:13AM 40.6350 -3.5560 North 205 236 5,200 600 Climbing FlightAware
07:13AM 40.6510 -3.5560 360° North 225 259 5,200 360 Level FlightAware
07:14AM 40.6850 -3.5560 360° North 253 291 5,500 900 Climbing FlightAware
07:14AM 40.7180 -3.5560 360° North 272 313 6,100 1,500 Climbing FlightAware
07:15AM 40.7680 -3.5570 359° North 287 330 7,200 1,800 Climbing FlightAware
07:15AM 40.8010 -3.5570 360° North 290 334 8,000 2,040 Climbing FlightAware
07:16AM 40.8300 -3.5570 360° North 291 335 8,800 1,860 Climbing FlightAware
07:16AM 40.8660 -3.5580 359° North 301 346 9,500 1,800 Climbing FlightAware
07:17AM 40.9240 -3.5610 358° North 305 351 10,900 1,560 Climbing FlightAware
07:18AM 41.0030 -3.5760 352° North 324 373 12,100 900 Climbing FlightAware
07:19AM 41.0960 -3.5940 352° North 357 411 12,700 540 Climbing FlightAware
07:19AM 41.1380 -3.6200 335° Northwest 371 427 12,900 420 Climbing FlightAware
07:20AM 41.1520 -3.6390 314° West 377 434 13,000 600 Climbing FlightAware
07:20AM 41.1690 -3.6930 293° West 388 447 13,300 1,020 Climbing FlightAware
07:21AM 41.1860 -3.7810 284° West 393 452 14,100 1,200 Climbing FlightAware
07:21AM 41.2090 -3.8980 285° West 398 458 15,100 1,260 Climbing FlightAware
07:22AM 41.2270 -3.9940 284° West 401 461 16,000 1,200 Climbing FlightAware
07:23AM 41.2470 -4.0970 285° West 406 467 16,800 1,200 Climbing FlightAware
07:24AM 41.2670 -4.2040 284° West 405 466 17,800 1,200 Climbing FlightAware
07:24AM 41.2840 -4.2910 285° West 411 473 18,400 1,020 Climbing FlightAware
07:25AM 41.3050 -4.4010 284° West 413 475 19,200 1,080 Climbing FlightAware
07:26AM 41.3240 -4.5030 284° West 417 480 20,000 1,020 Climbing FlightAware
07:26AM 41.3450 -4.6170 284° West 420 483 20,700 900 Climbing FlightAware
07:27AM 41.3640 -4.7180 284° West 425 489 21,300 900 Climbing FlightAware
07:28AM 41.3810 -4.8100 284° West 425 489 21,900 900 Climbing FlightAware
07:28AM 41.4040 -4.9360 284° West 431 496 22,600 780 Climbing FlightAware
07:29AM 41.4220 -5.0340 284° West 433 498 23,100 300 Climbing FlightAware
07:31AM 41.4670 -5.2910 283° West 436 502 23,500 120 Climbing FlightAware
07:32AM 41.4860 -5.4030 283° West 436 502 23,500  Level FlightAware
07:33AM 41.5040 -5.5060 283° West 436 502 23,500  Level FlightAware
07:33AM 41.5180 -5.5860 283° West 436 502 23,500 1,440 Level FlightAware
07:36AM 41.5130 -5.9676 269° West  Level FlightAware Approximate
07:37AM 41.5099 -6.1381 269° West  Level FlightAware Approximate
07:38AM 41.5065 -6.3087 269° West  Level FlightAware Approximate
07:38AM 41.5600 -6.5400 268° West 436 502 31,900  Level FlightAware
07:39AM 41.5028 -6.4792 268° West  Level FlightAware Approximate
07:40AM 41.5530 -6.7670 268° West 431 496 33,000  Level FlightAware
07:41AM 41.5440 -6.9770 267° West 444 511 33,000  Level FlightAware
07:42AM 41.5320 -7.0870 262° West 445 512 33,000  Level FlightAware
07:42AM 41.5170 -7.2090 261° West 445 512 33,000  Level FlightAware
07:43AM 41.5020 -7.3390 261° West 445 512 33,000  Level FlightAware
07:44AM 41.4880 -7.4570 261° West 446 513 33,000  Level FlightAware
07:46AM 41.4670 -7.7920 265° West 446 513 33,000  Level FlightAware
07:47AM 41.4640 -7.8890 268° West 446 513 33,000  Level FlightAware
07:47AM 41.4590 -8.0100 267° West 446 513 33,000  Level FlightAware
07:48AM 41.4550 -8.1230 267° West 446 513 33,000  Level FlightAware
07:49AM 41.4510 -8.2460 268° West 444 511 33,000  Level FlightAware
07:50AM 41.4440 -8.4270 267° West 444 511 33,000  Level FlightAware
07:51AM 41.4390 -8.5490 267° West 444 511 33,000  Level FlightAware
07:51AM 41.4350 -8.6680 267° West 443 510 33,000  Level FlightAware
07:52AM 41.4300 -8.7810 267° West 443 510 33,000  Level FlightAware
07:53AM 41.4250 -8.8890 267° West 444 511 33,000  Level FlightAware
07:53AM 41.4200 -9.0120 267° West 444 511 33,000  Level FlightAware
07:54AM 41.4150 -9.1210 267° West 445 512 33,000  Level FlightAware
07:55AM 41.4100 -9.2270 266° West 445 512 33,000  Level FlightAware
07:56AM 41.4050 -9.3500 267° West 444 511 33,000  Level FlightAware
07:56AM 41.4000 -9.4560 266° West 444 511 33,000  Level FlightAware
07:57AM 41.3950 -9.5640 267° West 444 511 33,000  Level FlightAware
07:58AM 41.3890 -9.6670 266° West 445 512 33,000  Level FlightAware
07:58AM 41.3860 -9.7460 267° West 446 513 33,000  Level FlightAware
07:59AM 41.3840 -9.9160 269° West 445 512 33,000  Level FlightAware
08:00AM 41.3850 -10.0270 271° West 445 512 33,000  Level FlightAware
08:00AM 41.3860 -10.1390 271° West 446 513 33,000  Level FlightAware
08:01AM 41.3870 -10.2570 271° West 447 514 33,000  Level FlightAware
08:02AM 41.3880 -10.3690 271° West 447 514 33,000  Level FlightAware
08:03AM 41.3890 -10.4720 271° West 447 514 33,000  Level FlightAware
08:03AM 41.3890 -10.5880 270° West 447 514 33,000  Level FlightAware
08:04AM 41.3890 -10.6940 270° West 447 514 33,000  Level FlightAware
08:05AM 41.3890 -10.7740 270° West 447 514 33,000  Level FlightAware
08:06AM 41.3890 -10.9170 270° West 447 514 33,000  Level FlightAware
08:06AM 41.3890 -11.0030 270° West 447 514 33,000  Level FlightAware
08:07AM 41.3890 -11.1160 270° West 447 514 33,000  Level FlightAware
08:07AM 41.3890 -11.1670 270° West 447 514 33,000  Level FlightAware
08:08AM 41.3890 -11.2850 270° West 447 514 33,000  Level FlightAware
08:09AM 41.3890 -11.3690 270° West 447 514 33,000  Level FlightAware
08:10AM 41.3890 -11.4770 270° West 447 514 33,000  Level FlightAware
08:10AM 41.3890 -11.5660 270° West 447 514 33,000  Level FlightAware
08:11AM 41.3890 -11.7040 270° West 447 514 33,000  Level FlightAware
08:12AM 41.3890 -11.7910 270° West 447 514 33,000  Level FlightAware
08:13AM 41.3890 -11.9030 270° West 447 514 33,000  Level FlightAware
08:13AM 41.3890 -11.9900 270° West 447 514 33,000  Level FlightAware
08:16AM 41.3446 -12.3684 261° West  Level FlightAware Approximate
08:17AM 41.3245 -12.5365 261° West  Level FlightAware Approximate
08:18AM 41.3042 -12.7044 261° West  Level FlightAware Approximate
08:19AM 41.2836 -12.8722 261° West  Level FlightAware Approximate
08:20AM 41.2627 -13.0399 261° West  Level FlightAware Approximate
08:21AM 41.2416 -13.2075 261° West  Level FlightAware Approximate
08:22AM 41.2203 -13.3750 260° West  Level FlightAware Approximate
08:23AM 41.1987 -13.5424 260° West  Level FlightAware Approximate
08:24AM 41.1769 -13.7097 260° West  Level FlightAware Approximate
08:25AM 41.1549 -13.8769 260° West  Level FlightAware Approximate
08:26AM 41.1326 -14.0439 260° West  Level FlightAware Approximate
08:27AM 41.1100 -14.2109 260° West  Level FlightAware Approximate
08:28AM 41.0872 -14.3777 260° West  Level FlightAware Approximate
08:29AM 41.0642 -14.5444 260° West  Level FlightAware Approximate
08:30AM 41.0410 -14.7110 260° West  Level FlightAware Approximate
08:31AM 41.0175 -14.8774 259° West  Level FlightAware Approximate
08:32AM 40.9911 -15.0506 257° West  Level FlightAware Approximate
08:33AM 40.9619 -15.2154 257° West  Level FlightAware Approximate
08:34AM 40.9325 -15.3800 257° West  Level FlightAware Approximate
08:35AM 40.9029 -15.5445 257° West  Level FlightAware Approximate
08:36AM 40.8731 -15.7088 257° West  Level FlightAware Approximate
08:37AM 40.8430 -15.8730 256° West  Level FlightAware Approximate
08:38AM 40.8127 -16.0370 256° West  Level FlightAware Approximate
08:39AM 40.7821 -16.2009 256° West  Level FlightAware Approximate
08:40AM 40.7513 -16.3646 256° West  Level FlightAware Approximate
08:41AM 40.7203 -16.5282 256° West  Level FlightAware Approximate
08:42AM 40.6891 -16.6916 256° West  Level FlightAware Approximate
08:43AM 40.6576 -16.8548 256° West  Level FlightAware Approximate
08:44AM 40.6259 -17.0179 256° West  Level FlightAware Approximate
08:45AM 40.5940 -17.1809 256° West  Level FlightAware Approximate
08:46AM 40.5618 -17.3437 255° West  Level FlightAware Approximate
08:47AM 40.5294 -17.5063 255° West  Level FlightAware Approximate
08:48AM 40.4968 -17.6688 255° West  Level FlightAware Approximate
08:49AM 40.4640 -17.8311 255° West  Level FlightAware Approximate
08:50AM 40.4309 -17.9933 255° West  Level FlightAware Approximate
08:51AM 40.3976 -18.1553 255° West  Level FlightAware Approximate
08:52AM 40.3641 -18.3171 255° West  Level FlightAware Approximate
08:53AM 40.3303 -18.4788 255° West  Level FlightAware Approximate
08:54AM 40.2963 -18.6403 255° West  Level FlightAware Approximate
08:55AM 40.2621 -18.8017 255° West  Level FlightAware Approximate
08:56AM 40.2277 -18.9629 254° West  Level FlightAware Approximate
08:57AM 40.1931 -19.1239 254° West  Level FlightAware Approximate
08:58AM 40.1582 -19.2848 254° West  Level FlightAware Approximate
08:59AM 40.1231 -19.4455 254° West  Level FlightAware Approximate
09:00AM 40.0878 -19.6060 254° West  Level FlightAware Approximate
09:01AM 40.0522 -19.7663 254° West  Level FlightAware Approximate
09:02AM 40.0165 -19.9265 254° West  Level FlightAware Approximate
09:03AM 39.9949 -20.0900 266° West  Level FlightAware Approximate
09:04AM 39.9854 -20.2563 266° West  Level FlightAware Approximate
09:05AM 39.9756 -20.4225 266° West  Level FlightAware Approximate
09:06AM 39.9655 -20.5887 266° West  Level FlightAware Approximate
09:07AM 39.9553 -20.7549 265° West  Level FlightAware Approximate
09:08AM 39.9448 -20.9209 265° West  Level FlightAware Approximate
09:09AM 39.9340 -21.0870 265° West  Level FlightAware Approximate
09:10AM 39.9230 -21.2530 265° West  Level FlightAware Approximate
09:11AM 39.9118 -21.4189 265° West  Level FlightAware Approximate
09:12AM 39.9003 -21.5848 265° West  Level FlightAware Approximate
09:13AM 39.8886 -21.7506 265° West  Level FlightAware Approximate
09:14AM 39.8767 -21.9164 265° West  Level FlightAware Approximate
09:15AM 39.8646 -22.0821 265° West  Level FlightAware Approximate
09:16AM 39.8522 -22.2477 264° West  Level FlightAware Approximate
09:17AM 39.8395 -22.4133 264° West  Level FlightAware Approximate
09:18AM 39.8266 -22.5789 264° West  Level FlightAware Approximate
09:19AM 39.8135 -22.7443 264° West  Level FlightAware Approximate
09:20AM 39.8002 -22.9097 264° West  Level FlightAware Approximate
09:21AM 39.7866 -23.0751 264° West  Level FlightAware Approximate
09:21AM 39.7870 -23.2790 264° West 469 540 34,000  Level FlightAware
09:22AM 39.7728 -23.2403 264° West  Level FlightAware Approximate
09:22AM 39.7740 -23.4190 263° West 470 541 34,000  Level FlightAware
09:23AM 39.7660 -23.5070 263° West 470 541 34,000  Level FlightAware
09:23AM 39.7540 -23.6570 264° West 473 544 34,000  Level FlightAware
09:24AM 39.7430 -23.7910 264° West 473 544 34,000  Level FlightAware
09:25AM 39.7290 -23.9410 263° West 472 543 34,000  Level FlightAware
09:26AM 39.7180 -24.0620 263° West 474 545 34,000  Level FlightAware
09:27AM 39.7040 -24.2160 263° West 475 547 34,000  Level FlightAware
09:27AM 39.6920 -24.3390 263° West 474 545 34,000  Level FlightAware
09:28AM 39.6850 -24.4210 264° West 474 545 34,000  Level FlightAware
09:29AM 39.6680 -24.5940 263° West 475 547 34,000  Level FlightAware
09:30AM 39.6580 -24.7030 263° West 475 547 34,000  Level FlightAware
09:31AM 39.6320 -24.9650 263° West 476 548 34,000  Level FlightAware
09:32AM 39.6210 -25.0720 262° West 474 545 34,000  Level FlightAware
09:32AM 39.6090 -25.1940 263° West 475 547 34,000  Level FlightAware
09:33AM 39.5920 -25.3540 262° West 477 549 34,000  Level FlightAware
09:34AM 39.5790 -25.4850 263° West 475 547 34,000  Level FlightAware
09:35AM 39.5720 -25.5520 262° West 474 545 34,000  Level FlightAware
09:36AM 39.5500 -25.7570 262° West 473 544 34,000  Level FlightAware
09:36AM 39.5380 -25.8710 262° West 472 543 34,000  Level FlightAware
09:37AM 39.5210 -26.0230 262° West 473 544 34,000  Level FlightAware
09:38AM 39.5060 -26.1680 262° West 472 543 34,000  Level FlightAware
09:39AM 39.4960 -26.2510 261° West 472 543 34,000  Level FlightAware
09:40AM 39.4790 -26.4070 262° West 471 542 34,000  Level FlightAware
09:41AM 39.4560 -26.6030 261° West 469 540 34,000  Level FlightAware
09:42AM 39.4410 -26.7430 262° West 471 542 34,000  Level FlightAware
09:43AM 39.4220 -26.9030 261° West 470 541 34,000  Level FlightAware
09:43AM 39.4060 -27.0440 262° West 472 543 34,000  Level FlightAware
09:44AM 39.3890 -27.1800 261° West 474 545 34,000  Level FlightAware
09:45AM 39.3750 -27.3020 262° West 475 547 34,000  Level FlightAware
09:46AM 39.3540 -27.4750 261° West 475 547 34,000  Level FlightAware
09:47AM 39.3410 -27.5830 261° West 473 544 34,000  Level FlightAware
09:48AM 39.3210 -27.7440 261° West 477 549 34,000  Level FlightAware
09:48AM 39.3080 -27.8350 260° West 477 549 34,000  Level FlightAware
09:49AM 39.2960 -27.9400 262° West 477 549 34,000  Level FlightAware
09:50AM 39.2840 -28.0270 260° West 477 549 34,000  Level FlightAware
09:50AM 39.2580 -28.2410 261° West 476 548 34,000  Level FlightAware
09:52AM 39.2340 -28.4230 260° West 475 547 34,000  Level FlightAware
09:52AM 39.2130 -28.5840 260° West 473 544 34,000  Level FlightAware
09:53AM 39.1990 -28.6920 261° West 471 542 34,000  Level FlightAware
09:54AM 39.1760 -28.8590 260° West 467 537 34,000  Level FlightAware
09:55AM 39.1670 -28.9280 260° West 467 537 34,000  Level FlightAware
09:55AM 39.1500 -29.0510 260° West 467 537 34,000  Level FlightAware
09:56AM 39.1360 -29.1600 261° West 469 540 34,000  Level FlightAware
09:57AM 39.1150 -29.3090 260° West 470 541 34,000  Level FlightAware
09:58AM 39.0920 -29.4640 259° West 472 543 34,000  Level FlightAware
09:59AM 39.0690 -29.6330 260° West 472 543 34,000  Level FlightAware
10:00AM 39.0560 -29.7220 259° West 472 543 34,000  Level FlightAware
10:00AM 39.0380 -29.8370 259° West 472 543 34,000  Level FlightAware
10:01AM 39.0260 -29.9170 259° West 472 543 34,000  Level FlightAware
10:02AM 39.0050 -30.0570 259° West 472 543 34,000  Level FlightAware
10:03AM 38.9840 -30.1960 259° West 472 543 34,000  Level FlightAware
10:04AM 38.9700 -30.2870 259° West 472 543 34,000  Level FlightAware
10:04AM 38.9530 -30.4000 259° West 472 543 34,000  Level FlightAware
10:05AM 38.9400 -30.4860 259° West 472 543 34,000  Level FlightAware
10:06AM 38.9240 -30.5940 259° West 472 543 34,000  Level FlightAware
10:07AM 38.9100 -30.6830 259° West 472 543 34,000  Level FlightAware
10:07AM 38.8970 -30.7700 259° West 472 543 34,000  Level FlightAware
10:08AM 38.8800 -30.8820 259° West 472 543 34,000  Level FlightAware
10:09AM 38.8670 -30.9710 259° West 472 543 34,000  Level FlightAware
10:11AM 38.8148 -31.2838 258° West  Level FlightAware Approximate
10:12AM 38.7878 -31.4440 258° West  Level FlightAware Approximate
10:13AM 38.7605 -31.6041 258° West  Level FlightAware Approximate
10:14AM 38.7330 -31.7640 258° West  Level FlightAware Approximate
10:15AM 38.7052 -31.9239 258° West  Level FlightAware Approximate
10:16AM 38.6773 -32.0836 257° West  Level FlightAware Approximate
10:17AM 38.6491 -32.2432 257° West  Level FlightAware Approximate
10:18AM 38.6208 -32.4027 257° West  Level FlightAware Approximate
10:19AM 38.5922 -32.5620 257° West  Level FlightAware Approximate
10:20AM 38.5634 -32.7212 257° West  Level FlightAware Approximate
10:21AM 38.5343 -32.8803 257° West  Level FlightAware Approximate
10:22AM 38.5051 -33.0393 257° West  Level FlightAware Approximate
10:23AM 38.4756 -33.1981 257° West  Level FlightAware Approximate
10:24AM 38.4460 -33.3568 257° West  Level FlightAware Approximate
10:25AM 38.4161 -33.5154 257° West  Level FlightAware Approximate
10:26AM 38.3860 -33.6738 256° West  Level FlightAware Approximate
10:27AM 38.3557 -33.8321 256° West  Level FlightAware Approximate
10:28AM 38.3251 -33.9903 256° West  Level FlightAware Approximate
10:29AM 38.2944 -34.1484 256° West  Level FlightAware Approximate
10:30AM 38.2635 -34.3063 256° West  Level FlightAware Approximate
10:31AM 38.2323 -34.4640 256° West  Level FlightAware Approximate
10:32AM 38.2009 -34.6217 256° West  Level FlightAware Approximate
10:33AM 38.1693 -34.7792 256° West  Level FlightAware Approximate
10:34AM 38.1376 -34.9365 256° West  Level FlightAware Approximate
10:35AM 38.1056 -35.0937 256° West  Level FlightAware Approximate
10:36AM 38.0733 -35.2508 255° West  Level FlightAware Approximate
10:37AM 38.0409 -35.4078 255° West  Level FlightAware Approximate
10:38AM 38.0083 -35.5646 255° West  Level FlightAware Approximate
10:39AM 37.9755 -35.7213 255° West  Level FlightAware Approximate
10:40AM 37.9424 -35.8778 255° West  Level FlightAware Approximate
10:41AM 37.9092 -36.0342 255° West  Level FlightAware Approximate
10:42AM 37.8757 -36.1904 255° West  Level FlightAware Approximate
10:43AM 37.8421 -36.3465 255° West  Level FlightAware Approximate
10:44AM 37.8082 -36.5025 255° West  Level FlightAware Approximate
10:45AM 37.7741 -36.6583 255° West  Level FlightAware Approximate
10:46AM 37.7398 -36.8140 254° West  Level FlightAware Approximate
10:47AM 37.7054 -36.9695 254° West  Level FlightAware Approximate
10:48AM 37.6707 -37.1249 254° West  Level FlightAware Approximate
10:49AM 37.6358 -37.2801 254° West  Level FlightAware Approximate
10:50AM 37.6007 -37.4352 254° West  Level FlightAware Approximate
10:51AM 37.5654 -37.5901 254° West  Level FlightAware Approximate
10:52AM 37.5299 -37.7449 254° West  Level FlightAware Approximate
10:53AM 37.4942 -37.8996 254° West  Level FlightAware Approximate
10:54AM 37.4583 -38.0541 254° West  Level FlightAware Approximate
10:55AM 37.4222 -38.2085 254° West  Level FlightAware Approximate
10:56AM 37.3859 -38.3627 254° West  Level FlightAware Approximate
10:57AM 37.3494 -38.5167 253° West  Level FlightAware Approximate
10:58AM 37.3127 -38.6706 253° West  Level FlightAware Approximate
10:59AM 37.2758 -38.8243 253° West  Level FlightAware Approximate
11:00AM 37.2387 -38.9780 253° West  Level FlightAware Approximate
11:01AM 37.2030 -39.1323 254° West  Level FlightAware Approximate
11:02AM 37.1675 -39.2863 254° West  Level FlightAware Approximate
11:03AM 37.1318 -39.4402 254° West  Level FlightAware Approximate
11:03AM 37.0000 -40.0000 233° Southwest 516 594 34,000  Level New York Oceanic (ODAPS)
11:04AM 37.0959 -39.5940 254° West  Level FlightAware Approximate
11:05AM 37.0598 -39.7476 254° West  Level FlightAware Approximate
11:06AM 37.0235 -39.9010 254° West  Level FlightAware Approximate
11:07AM 36.9724 -40.0450 232° Southwest  Level FlightAware Approximate
11:08AM 36.8944 -40.1716 232° Southwest  Level FlightAware Approximate
11:09AM 36.4784 -40.8511 232° Southwest 516 594 34,000  Level FlightAware Transoceanic
11:10AM 36.3909 -40.9918 232° Southwest 516 594 34,000  Level FlightAware Transoceanic
11:11AM 36.3032 -41.1322 232° Southwest 516 594 34,000  Level FlightAware Transoceanic
11:12AM 36.2154 -41.2723 232° Southwest 516 594 34,000  Level FlightAware Transoceanic
11:13AM 36.1273 -41.4121 232° Southwest 516 594 34,000  Level FlightAware Transoceanic
11:14AM 36.0392 -41.5516 232° Southwest 516 594 34,000  Level FlightAware Transoceanic
11:15AM 35.9508 -41.6907 232° Southwest 516 594 34,000  Level FlightAware Transoceanic
11:16AM 35.8624 -41.8296 232° Southwest 516 594 34,000  Level FlightAware Transoceanic
11:16AM 35.8833 -41.8000 232° Southwest 511 588 34,000  Level New York Oceanic (ODAPS)
11:17AM 35.7737 -41.9681 232° Southwest 516 594 34,000  Level FlightAware Transoceanic
11:18AM 35.6849 -42.1063 232° Southwest 516 594 34,000  Level FlightAware Transoceanic
11:19AM 35.5959 -42.2442 232° Southwest 516 594 34,000  Level FlightAware Transoceanic
11:20AM 35.5068 -42.3819 231° Southwest 516 594 34,000  Level FlightAware Transoceanic
11:21AM 35.4175 -42.5192 231° Southwest 516 594 34,000  Level FlightAware Transoceanic
11:22AM 35.3557 -42.6169 231° Southwest 511 588 34,000  Level FlightAware Transoceanic
11:23AM 35.2672 -42.7520 231° Southwest 511 588 34,000  Level FlightAware Transoceanic
11:24AM 35.1786 -42.8868 231° Southwest 511 588 34,000  Level FlightAware Transoceanic
11:25AM 35.0898 -43.0214 231° Southwest 511 588 34,000  Level FlightAware Transoceanic
11:26AM 35.0009 -43.1556 231° Southwest 511 588 34,000  Level FlightAware Transoceanic
11:27AM 34.9118 -43.2895 231° Southwest 511 588 34,000  Level FlightAware Transoceanic
11:28AM 34.8226 -43.4231 231° Southwest 511 588 34,000  Level FlightAware Transoceanic
11:29AM 34.7332 -43.5565 231° Southwest 511 588 34,000  Level FlightAware Transoceanic
11:30AM 34.6437 -43.6896 231° Southwest 511 588 34,000  Level FlightAware Transoceanic
11:31AM 34.5541 -43.8224 231° Southwest 511 588 34,000  Level FlightAware Transoceanic
11:32AM 34.4642 -43.9548 231° Southwest 511 588 34,000  Level FlightAware Transoceanic
11:33AM 34.3743 -44.0871 230° Southwest 511 588 34,000  Level FlightAware Transoceanic
11:34AM 34.2842 -44.2190 230° Southwest 511 588 34,000  Level FlightAware Transoceanic
11:35AM 34.1940 -44.3506 230° Southwest 511 588 34,000  Level FlightAware Transoceanic
11:36AM 34.1036 -44.4820 230° Southwest 511 588 34,000  Level FlightAware Transoceanic
11:36AM 34.1500 -44.4167 230° Southwest 505 581 34,000  Level New York Oceanic (ODAPS)
11:37AM 34.0131 -44.6131 230° Southwest 511 588 34,000  Level FlightAware Transoceanic
11:38AM 33.9225 -44.7439 230° Southwest 511 588 34,000  Level FlightAware Transoceanic
11:39AM 33.8317 -44.8744 230° Southwest 511 588 34,000  Level FlightAware Transoceanic
11:40AM 33.7408 -45.0046 230° Southwest 511 588 34,000  Level FlightAware Transoceanic
11:41AM 33.6497 -45.1346 230° Southwest 511 588 34,000  Level FlightAware Transoceanic
11:42AM 33.6113 -45.1911 230° Southwest 505 581 34,000  Level FlightAware Transoceanic
11:43AM 33.5210 -45.3193 230° Southwest 505 581 34,000  Level FlightAware Transoceanic
11:44AM 33.4306 -45.4471 230° Southwest 505 581 34,000  Level FlightAware Transoceanic
11:45AM 33.3401 -45.5747 230° Southwest 505 581 34,000  Level FlightAware Transoceanic
11:46AM 33.2494 -45.7020 230° Southwest 505 581 34,000  Level FlightAware Transoceanic
11:47AM 33.1587 -45.8291 229° Southwest 505 581 34,000  Level FlightAware Transoceanic
11:48AM 33.0677 -45.9559 229° Southwest 505 581 34,000  Level FlightAware Transoceanic
11:49AM 32.9767 -46.0825 229° Southwest 505 581 34,000  Level FlightAware Transoceanic
11:50AM 32.8856 -46.2088 229° Southwest 505 581 34,000  Level FlightAware Transoceanic
11:51AM 32.7943 -46.3348 229° Southwest 505 581 34,000  Level FlightAware Transoceanic
11:52AM 32.7028 -46.4605 229° Southwest 505 581 34,000  Level FlightAware Transoceanic
11:53AM 32.6113 -46.5860 229° Southwest 505 581 34,000  Level FlightAware Transoceanic
11:54AM 32.5196 -46.7113 229° Southwest 505 581 34,000  Level FlightAware Transoceanic
11:55AM 32.4278 -46.8363 229° Southwest 505 581 34,000  Level FlightAware Transoceanic
11:56AM 32.3359 -46.9610 229° Southwest 505 581 34,000  Level FlightAware Transoceanic
11:56AM 32.3333 -46.9667 229° Southwest 512 589 34,000  Level New York Oceanic (ODAPS)
11:57AM 32.2439 -47.0855 229° Southwest 505 581 34,000  Level FlightAware Transoceanic
11:58AM 32.1517 -47.2098 229° Southwest 505 581 34,000  Level FlightAware Transoceanic
11:59AM 32.0594 -47.3337 229° Southwest 505 581 34,000  Level FlightAware Transoceanic
12:00PM 31.9671 -47.4575 229° Southwest 505 581 34,000  Level FlightAware Transoceanic
12:01PM 31.8745 -47.5810 229° Southwest 505 581 34,000  Level FlightAware Transoceanic
12:02PM 31.7799 -47.7084 228° Southwest 512 589 34,000  Level FlightAware Transoceanic
12:03PM 31.6872 -47.8312 228° Southwest 512 589 34,000  Level FlightAware Transoceanic
12:04PM 31.5945 -47.9537 228° Southwest 512 589 34,000  Level FlightAware Transoceanic
12:05PM 31.5016 -48.0760 228° Southwest 512 589 34,000  Level FlightAware Transoceanic
12:06PM 31.4086 -48.1980 228° Southwest 512 589 34,000  Level FlightAware Transoceanic
12:07PM 31.3155 -48.3198 228° Southwest 512 589 34,000  Level FlightAware Transoceanic
12:08PM 31.2222 -48.4413 228° Southwest 512 589 34,000  Level FlightAware Transoceanic
12:09PM 31.1289 -48.5626 228° Southwest 512 589 34,000  Level FlightAware Transoceanic
12:10PM 31.0354 -48.6837 228° Southwest 512 589 34,000  Level FlightAware Transoceanic
12:11PM 30.9418 -48.8045 228° Southwest 512 589 34,000  Level FlightAware Transoceanic
12:12PM 30.8481 -48.9251 228° Southwest 512 589 34,000  Level FlightAware Transoceanic
12:13PM 30.7543 -49.0455 228° Southwest 512 589 34,000  Level FlightAware Transoceanic
12:14PM 30.6604 -49.1656 228° Southwest 512 589 34,000  Level FlightAware Transoceanic
12:15PM 30.5664 -49.2855 228° Southwest 512 589 34,000  Level FlightAware Transoceanic
12:16PM 30.4723 -49.4052 228° Southwest 512 589 34,000  Level FlightAware Transoceanic
12:16PM 30.4000 -49.5000 227° Southwest 515 593 34,000  Level New York Oceanic (ODAPS)
12:17PM 30.3780 -49.5246 228° Southwest 512 589 34,000  Level FlightAware Transoceanic
12:18PM 30.2837 -49.6438 227° Southwest 512 589 34,000  Level FlightAware Transoceanic
12:19PM 30.1892 -49.7627 227° Southwest 512 589 34,000  Level FlightAware Transoceanic
12:20PM 30.0947 -49.8815 227° Southwest 512 589 34,000  Level FlightAware Transoceanic
12:20PM 30.0000 -50.0000 223° Southwest 505 581 34,000  Level New York Oceanic (ODAPS)
12:21PM 30.0000 -50.0000 223° Southwest 512 589 34,000  Level FlightAware Transoceanic
12:22PM 29.8956 -50.1113 223° Southwest 512 589 34,000  Level FlightAware Transoceanic
12:23PM 29.7910 -50.2224 223° Southwest 515 593 34,000  Level FlightAware Transoceanic
12:24PM 29.6864 -50.3333 223° Southwest 515 593 34,000  Level FlightAware Transoceanic
12:25PM 29.5817 -50.4439 223° Southwest 515 593 34,000  Level FlightAware Transoceanic
12:26PM 29.4769 -50.5543 222° Southwest 515 593 34,000  Level FlightAware Transoceanic
12:27PM 29.3720 -50.6645 222° Southwest 505 581 34,000  Level FlightAware Transoceanic
12:28PM 29.2671 -50.7744 222° Southwest 505 581 34,000  Level FlightAware Transoceanic
12:29PM 29.1620 -50.8842 222° Southwest 505 581 34,000  Level FlightAware Transoceanic
12:30PM 29.0568 -50.9936 222° Southwest 505 581 34,000  Level FlightAware Transoceanic
12:31PM 28.9516 -51.1029 222° Southwest 505 581 34,000  Level FlightAware Transoceanic
12:32PM 28.8463 -51.2120 222° Southwest 505 581 34,000  Level FlightAware Transoceanic
12:33PM 28.7408 -51.3208 222° Southwest 505 581 34,000  Level FlightAware Transoceanic
12:34PM 28.6353 -51.4294 222° Southwest 505 581 34,000  Level FlightAware Transoceanic
12:35PM 28.5297 -51.5378 222° Southwest 505 581 34,000  Level FlightAware Transoceanic
12:36PM 28.4240 -51.6460 222° Southwest 505 581 34,000  Level FlightAware Transoceanic
12:37PM 28.3183 -51.7539 222° Southwest 505 581 34,000 1,740 Level FlightAware Transoceanic
12:37PM 28.2667 -51.8167 222° Southwest 501 577 36,000  Climbing New York Oceanic (ODAPS)
12:38PM 28.2124 -51.8617 222° Southwest 505 581 34,000 -1,080 Descending FlightAware Transoceanic
12:39PM 28.1065 -51.9692 222° Southwest 505 581 34,000  Level FlightAware Transoceanic
12:40PM 28.0005 -52.0765 222° Southwest 505 581 34,000  Level FlightAware Transoceanic
12:41PM 27.8944 -52.1836 222° Southwest 505 581 34,000  Level FlightAware Transoceanic
12:42PM 27.7882 -52.2905 222° Southwest 505 581 34,000 960 Level FlightAware Transoceanic
12:43PM 27.6401 -52.4473 221° Southwest 501 577 36,000 960 Climbing FlightAware Transoceanic
12:44PM 27.5353 -52.5517 221° Southwest 501 577 36,000  Level FlightAware Transoceanic
12:45PM 27.4305 -52.6559 221° Southwest 501 577 36,000  Level FlightAware Transoceanic
12:46PM 27.3257 -52.7599 221° Southwest 501 577 36,000  Level FlightAware Transoceanic
12:47PM 27.2207 -52.8637 221° Southwest 501 577 36,000  Level FlightAware Transoceanic
12:48PM 27.1157 -52.9673 221° Southwest 501 577 36,000  Level FlightAware Transoceanic
12:49PM 27.0106 -53.0707 221° Southwest 501 577 36,000  Level FlightAware Transoceanic
12:50PM 26.9055 -53.1739 221° Southwest 501 577 36,000  Level FlightAware Transoceanic
12:51PM 26.8002 -53.2769 221° Southwest 501 577 36,000  Level FlightAware Transoceanic
12:52PM 26.6949 -53.3797 221° Southwest 501 577 36,000  Level FlightAware Transoceanic
12:53PM 26.5895 -53.4824 221° Southwest 501 577 36,000  Level FlightAware Transoceanic
12:54PM 26.4840 -53.5849 221° Southwest 501 577 36,000  Level FlightAware Transoceanic
12:55PM 26.3785 -53.6871 221° Southwest 501 577 36,000  Level FlightAware Transoceanic
12:56PM 26.2729 -53.7892 221° Southwest 501 577 36,000  Level FlightAware Transoceanic
12:57PM 26.1672 -53.8911 221° Southwest 501 577 36,000  Level FlightAware Transoceanic
12:57PM 26.1167 -53.9333 221° Southwest 494 568 36,000  Level New York Oceanic (ODAPS)
12:58PM 26.0614 -53.9928 221° Southwest 501 577 36,000  Level FlightAware Transoceanic
12:59PM 25.9556 -54.0943 221° Southwest 501 577 36,000  Level FlightAware Transoceanic
01:00PM 25.8497 -54.1957 221° Southwest 501 577 36,000  Level FlightAware Transoceanic
01:01PM 25.7437 -54.2968 221° Southwest 501 577 36,000  Level FlightAware Transoceanic
01:02PM 25.6377 -54.3978 221° Southwest 501 577 36,000  Level FlightAware Transoceanic
01:03PM 25.5085 -54.5176 221° Southwest 494 568 36,000  Level FlightAware Transoceanic
01:04PM 25.4069 -54.6144 221° Southwest 494 568 36,000  Level FlightAware Transoceanic
01:05PM 25.3053 -54.7110 221° Southwest 494 568 36,000  Level FlightAware Transoceanic
01:06PM 25.2036 -54.8075 221° Southwest 494 568 36,000  Level FlightAware Transoceanic
01:07PM 25.1018 -54.9039 221° Southwest 494 568 36,000  Level FlightAware Transoceanic
01:08PM 25.0000 -55.0000 215° Southwest 494 568 36,000  Level FlightAware Transoceanic
01:08PM 25.0000 -55.0000 215° Southwest 473 544 36,000  Level New York Oceanic (ODAPS)
01:09PM 24.8919 -55.0821 215° Southwest 494 568 36,000  Level FlightAware Transoceanic
01:10PM 24.7837 -55.1641 214° Southwest 494 568 36,000  Level FlightAware Transoceanic
01:11PM 24.6754 -55.2459 214° Southwest 494 568 36,000  Level FlightAware Transoceanic
01:12PM 24.5672 -55.3275 214° Southwest 494 568 36,000  Level FlightAware Transoceanic
01:13PM 24.4588 -55.4091 214° Southwest 494 568 36,000  Level FlightAware Transoceanic
01:14PM 24.3505 -55.4905 214° Southwest 473 544 36,000  Level FlightAware Transoceanic
01:15PM 24.2421 -55.5717 214° Southwest 473 544 36,000  Level FlightAware Transoceanic
01:16PM 24.1336 -55.6528 214° Southwest 473 544 36,000  Level FlightAware Transoceanic
01:17PM 24.0251 -55.7338 214° Southwest 473 544 36,000  Level FlightAware Transoceanic
01:17PM 23.9500 -55.7833 214° Southwest 466 536 36,000  Level New York Oceanic (ODAPS)
01:18PM 23.9166 -55.8146 214° Southwest 473 544 36,000  Level FlightAware Transoceanic
01:19PM 23.8080 -55.8954 214° Southwest 473 544 36,000  Level FlightAware Transoceanic
01:20PM 23.6994 -55.9759 214° Southwest 473 544 36,000  Level FlightAware Transoceanic
01:21PM 23.5907 -56.0564 214° Southwest 473 544 36,000  Level FlightAware Transoceanic
01:22PM 23.4820 -56.1367 214° Southwest 473 544 36,000  Level FlightAware Transoceanic
01:23PM 23.4037 -56.1886 214° Southwest 466 536 36,000  Level FlightAware Transoceanic
01:24PM 23.2943 -56.2693 214° Southwest 466 536 36,000  Level FlightAware Transoceanic
01:25PM 23.1848 -56.3498 214° Southwest 466 536 36,000  Level FlightAware Transoceanic
01:26PM 23.0754 -56.4302 214° Southwest 466 536 36,000  Level FlightAware Transoceanic
01:27PM 22.9659 -56.5104 214° Southwest 466 536 36,000  Level FlightAware Transoceanic
01:28PM 22.8563 -56.5906 214° Southwest 466 536 36,000  Level FlightAware Transoceanic
01:29PM 22.7467 -56.6706 214° Southwest 466 536 36,000  Level FlightAware Transoceanic
01:30PM 22.6371 -56.7504 214° Southwest 466 536 36,000  Level FlightAware Transoceanic
01:31PM 22.5274 -56.8302 214° Southwest 466 536 36,000  Level FlightAware Transoceanic
01:32PM 22.4177 -56.9098 214° Southwest 466 536 36,000  Level FlightAware Transoceanic
01:33PM 22.3079 -56.9893 214° Southwest 466 536 36,000  Level FlightAware Transoceanic
01:34PM 22.1981 -57.0687 214° Southwest 466 536 36,000  Level FlightAware Transoceanic
01:35PM 22.0883 -57.1479 214° Southwest 466 536 36,000  Level FlightAware Transoceanic
01:36PM 21.9784 -57.2270 214° Southwest 466 536 36,000  Level FlightAware Transoceanic
01:37PM 21.8685 -57.3060 214° Southwest 466 536 36,000  Level FlightAware Transoceanic
01:37PM 21.7667 -57.3833 214° Southwest 459 528 36,000  Level New York Oceanic (ODAPS)
01:38PM 21.7586 -57.3849 214° Southwest 466 536 36,000  Level FlightAware Transoceanic
01:39PM 21.6486 -57.4636 214° Southwest 466 536 36,000  Level FlightAware Transoceanic
01:40PM 21.5386 -57.5423 214° Southwest 466 536 36,000  Level FlightAware Transoceanic
01:41PM 21.4286 -57.6208 214° Southwest 466 536 36,000  Level FlightAware Transoceanic
01:42PM 21.3185 -57.6992 214° Southwest 466 536 36,000  Level FlightAware Transoceanic
01:43PM 21.2083 -57.7775 214° Southwest 466 536 36,000  Level FlightAware Transoceanic
01:44PM 21.1237 -57.8410 213° Southwest 459 528 36,000  Level FlightAware Transoceanic
01:45PM 21.0165 -57.9169 213° Southwest 459 528 36,000  Level FlightAware Transoceanic
01:46PM 20.9092 -57.9926 213° Southwest 459 528 36,000  Level FlightAware Transoceanic
01:47PM 20.8018 -58.0683 213° Southwest 459 528 36,000  Level FlightAware Transoceanic
01:48PM 20.6945 -58.1439 213° Southwest 459 528 36,000  Level FlightAware Transoceanic
01:49PM 20.5870 -58.2193 213° Southwest 459 528 36,000  Level FlightAware Transoceanic
01:50PM 20.4796 -58.2947 213° Southwest 459 528 36,000  Level FlightAware Transoceanic
01:51PM 20.3721 -58.3699 213° Southwest 459 528 36,000  Level FlightAware Transoceanic
01:52PM 20.2646 -58.4451 213° Southwest 459 528 36,000  Level FlightAware Transoceanic
01:53PM 20.1571 -58.5201 213° Southwest 459 528 36,000  Level FlightAware Transoceanic
01:54PM 20.0495 -58.5950 213° Southwest 459 528 36,000  Level FlightAware Transoceanic
01:55PM 19.9419 -58.6698 213° Southwest 459 528 36,000  Level FlightAware Transoceanic
01:56PM 19.8343 -58.7446 213° Southwest 459 528 36,000  Level FlightAware Transoceanic
01:57PM 19.7266 -58.8192 213° Southwest 459 528 36,000  Level FlightAware Transoceanic
01:58PM 19.6189 -58.8937 213° Southwest 459 528 36,000  Level FlightAware Transoceanic
01:58PM 19.5833 -58.9167 213° Southwest 460 529 36,000  Level New York Oceanic (ODAPS)
01:59PM 19.5112 -58.9682 213° Southwest 459 528 36,000  Level FlightAware Transoceanic
02:00PM 19.4035 -59.0425 213° Southwest 459 528 36,000  Level FlightAware Transoceanic
02:01PM 19.2957 -59.1167 213° Southwest 459 528 36,000  Level FlightAware Transoceanic
02:02PM 19.1879 -59.1908 213° Southwest 459 528 36,000  Level FlightAware Transoceanic
02:03PM 19.0800 -59.2649 213° Southwest 459 528 36,000  Level FlightAware Transoceanic
02:04PM 18.9508 -59.3525 213° Southwest 460 529 36,000  Level FlightAware Transoceanic
02:05PM 18.8452 -59.4248 213° Southwest 460 529 36,000  Level FlightAware Transoceanic
02:06PM 18.7397 -59.4970 213° Southwest 460 529 36,000  Level FlightAware Transoceanic
02:07PM 18.6341 -59.5691 213° Southwest 460 529 36,000  Level FlightAware Transoceanic
02:08PM 18.5285 -59.6411 213° Southwest 460 529 36,000  Level FlightAware Transoceanic
02:09PM 18.4228 -59.7131 213° Southwest 460 529 36,000  Level FlightAware Transoceanic
02:10PM 18.3172 -59.7850 213° Southwest 460 529 36,000  Level FlightAware Transoceanic
02:11PM 18.2115 -59.8567 213° Southwest 460 529 36,000  Level FlightAware Transoceanic
02:12PM 18.1057 -59.9284 213° Southwest 460 529 36,000  Level FlightAware Transoceanic
02:13PM 18.0000 -60.0000 220° Southwest 460 529 36,000  Level FlightAware Transoceanic
02:13PM 17.9870 -60.0340 220° Southwest 450 518 36,000  Level FlightAware
02:13PM 17.9380 -60.0770 220° Southwest 449 517 36,000  Level FlightAware
02:14PM 17.8750 -60.1330 220° Southwest 449 517 36,000  Level FlightAware
02:15PM 17.7970 -60.2050 221° Southwest 449 517 36,000  Level FlightAware
02:16PM 17.7310 -60.2650 221° Southwest 446 513 36,000  Level FlightAware
02:16PM 17.6680 -60.3210 220° Southwest 448 516 36,000  Level FlightAware
02:17PM 17.5960 -60.3850 220° Southwest 447 514 36,000  Level FlightAware
02:18PM 17.5370 -60.4380 221° Southwest 445 512 36,000  Level FlightAware
02:18PM 17.4860 -60.4840 221° Southwest 445 512 36,000  Level FlightAware
02:19PM 17.4180 -60.5440 220° Southwest 445 512 36,000  Level FlightAware
02:20PM 17.3150 -60.6360 220° Southwest 446 513 36,000  Level FlightAware
02:21PM 17.2570 -60.6880 221° Southwest 446 513 36,000  Level FlightAware
02:21PM 17.1960 -60.7420 220° Southwest 446 513 36,000  Level FlightAware
02:22PM 17.1160 -60.8130 220° Southwest 447 514 36,000  Level FlightAware
02:23PM 17.0360 -60.8840 220° Southwest 448 516 36,000  Level FlightAware
02:24PM 16.9390 -60.9700 220° Southwest 446 513 36,000  Level FlightAware
02:25PM 16.8740 -61.0270 220° Southwest 447 514 36,000  Level FlightAware
02:25PM 16.8000 -61.0930 220° Southwest 451 519 36,000  Level FlightAware
02:26PM 16.7430 -61.1430 220° Southwest 456 525 36,000  Level FlightAware
02:27PM 16.6700 -61.2070 220° Southwest 454 522 36,000  Level FlightAware
02:28PM 16.5910 -61.2770 220° Southwest 454 522 36,000  Level FlightAware
02:28PM 16.5270 -61.3340 220° Southwest 458 527 36,000  Level FlightAware
02:29PM 16.4640 -61.3880 219° Southwest 455 524 36,000 120 Level FlightAware
02:32PM 16.1980 -61.5852 224° Southwest  Level FlightAware Approximate
02:32PM 16.2000 -61.6290 224° Southwest 454 522 36,400  Level FlightAware
02:32PM 16.1170 -61.7130 224° Southwest 457 526 36,400  Level FlightAware
02:33PM 16.0600 -61.7690 223° Southwest 461 531 36,400 -300 Level FlightAware
02:34PM 16.0210 -61.8070 223° Southwest 463 533 36,000 -300 Descending FlightAware
02:34PM 15.9610 -61.8670 224° Southwest 466 536 36,000  Level FlightAware
02:35PM 15.8980 -61.9300 224° Southwest 466 536 36,000  Level FlightAware
02:36PM 15.8220 -62.0060 224° Southwest 464 534 36,000  Level FlightAware
02:36PM 15.7610 -62.0660 223° Southwest 467 537 36,000  Level FlightAware
02:37PM 15.6910 -62.1360 224° Southwest 471 542 36,000  Level FlightAware
02:38PM 15.6140 -62.2120 224° Southwest 471 542 36,000  Level FlightAware
02:39PM 15.5320 -62.2930 224° Southwest 473 544 36,000  Level FlightAware
02:40PM 15.4130 -62.4090 223° Southwest 473 544 36,000  Level FlightAware
02:41PM 15.3340 -62.4850 223° Southwest 473 544 36,000  Level FlightAware
02:42PM 15.2850 -62.5330 223° Southwest 473 544 36,000  Level FlightAware
02:43PM 15.2170 -62.5980 223° Southwest 473 544 36,000  Level FlightAware
02:43PM 15.1670 -62.6470 223° Southwest 473 544 36,000  Level FlightAware
02:44PM 15.0840 -62.7270 223° Southwest 473 544 36,000  Level FlightAware
02:46PM 14.9750 -62.8320 223° Southwest 473 544 36,000  Level FlightAware
02:46PM 14.9120 -62.8930 223° Southwest 473 544 36,000  Level FlightAware
02:47PM 14.8620 -62.9410 223° Southwest 473 544 36,000  Level FlightAware
02:48PM 14.7980 -63.0030 223° Southwest 473 544 36,000  Level FlightAware
02:48PM 14.7500 -63.0490 223° Southwest 473 544 36,000  Level FlightAware
02:49PM 14.6970 -63.1000 223° Southwest 473 544 36,000 -120 Level FlightAware
02:52PM 14.4536 -63.3303 223° Southwest  Level FlightAware Approximate
02:53PM 14.3593 -63.4193 222° Southwest  Level FlightAware Approximate
02:54PM 14.2650 -63.5082 222° Southwest  Level FlightAware Approximate
02:55PM 14.1706 -63.5971 222° Southwest  Level FlightAware Approximate
02:56PM 14.0762 -63.6859 222° Southwest  Level FlightAware Approximate
02:57PM 13.9818 -63.7746 222° Southwest  Level FlightAware Approximate
02:58PM 13.8873 -63.8632 222° Southwest  Level FlightAware Approximate
02:59PM 13.7928 -63.9518 222° Southwest  Level FlightAware Approximate
03:00PM 13.6983 -64.0403 222° Southwest  Level FlightAware Approximate
03:01PM 13.6038 -64.1291 223° Southwest  Level FlightAware Approximate
03:02PM 13.5106 -64.2191 223° Southwest  Level FlightAware Approximate
03:03PM 13.4174 -64.3090 223° Southwest  Level FlightAware Approximate
03:04PM 13.3242 -64.3988 223° Southwest  Level FlightAware Approximate
03:05PM 13.2310 -64.4885 223° Southwest  Level FlightAware Approximate
03:06PM 13.1377 -64.5782 223° Southwest  Level FlightAware Approximate
03:07PM 13.0444 -64.6678 223° Southwest  Level FlightAware Approximate
03:08PM 12.9511 -64.7573 223° Southwest  Level FlightAware Approximate
03:09PM 12.8577 -64.8468 223° Southwest  Level FlightAware Approximate
03:10PM 12.7643 -64.9362 223° Southwest  Level FlightAware Approximate
03:11PM 12.6709 -65.0256 223° Southwest  Level FlightAware Approximate
03:12PM 12.5775 -65.1148 223° Southwest  Level FlightAware Approximate
03:13PM 12.4840 -65.2040 223° Southwest  Level FlightAware Approximate
03:14PM 12.3905 -65.2932 223° Southwest  Level FlightAware Approximate
03:15PM 12.2969 -65.3823 223° Southwest  Level FlightAware Approximate
03:16PM 12.2034 -65.4713 223° Southwest  Level FlightAware Approximate
03:17PM 12.1098 -65.5602 223° Southwest  Level FlightAware Approximate
03:18PM 12.0161 -65.6491 223° Southwest  Level FlightAware Approximate
03:19PM 11.9225 -65.7380 223° Southwest  Level FlightAware Approximate
03:20PM 11.8288 -65.8267 223° Southwest  Level FlightAware Approximate
03:21PM 11.7351 -65.9154 223° Southwest  Level FlightAware Approximate
03:22PM 11.6413 -66.0041 223° Southwest  Level FlightAware Approximate
03:23PM 11.5476 -66.0927 223° Southwest  Level FlightAware Approximate
03:24PM 11.4538 -66.1812 223° Southwest  Level FlightAware Approximate
03:25PM 11.3600 -66.2697 223° Southwest  Level FlightAware Approximate
03:26PM 11.2661 -66.3581 223° Southwest  Level FlightAware Approximate
03:27PM 11.1723 -66.4464 223° Southwest  Level FlightAware Approximate
03:28PM 11.0784 -66.5347 223° Southwest  Level FlightAware Approximate
03:29PM 10.9844 -66.6230 223° Southwest  Level FlightAware Approximate
03:30PM 10.8905 -66.7112 223° Southwest  Level FlightAware Approximate
03:31PM 10.7965 -66.7993 223° Southwest  Level FlightAware Approximate
03:32PM 10.7025 -66.8874 223° Southwest  Level FlightAware Approximate
03:33PM 10.6085 -66.9754 223° Southwest  Level FlightAware Approximate
03:34PM 10.5875 -67.1009 264° West  Level FlightAware Approximate
03:35PM 10.5737 -67.2301 264° West  Level FlightAware Approximate
03:36PM 10.5599 -67.3593 264° West  Level FlightAware Approximate
03:37PM 10.5461 -67.4885 264° West  Level FlightAware Approximate
03:38PM 10.5321 -67.6177 264° West  Level FlightAware Approximate
03:39PM 10.5182 -67.7469 264° West  Level FlightAware Approximate
03:40PM 10.5041 -67.8760 264° West  Level FlightAware Approximate
03:41PM 10.4901 -68.0052 264° West  Level FlightAware Approximate
03:42PM 10.4215 -68.0926 202° Southwest  Level FlightAware Approximate
03:43PM 10.3034 -68.1422 202° Southwest  Level FlightAware Approximate
03:44PM 10.1853 -68.1917 202° Southwest  Level FlightAware Approximate
03:45PM 10.0672 -68.2411 202° Southwest  Level FlightAware Approximate
03:46PM 9.9490 -68.2906 202° Southwest  Level FlightAware Approximate
03:47PM 9.8309 -68.3400 202° Southwest  Level FlightAware Approximate
03:48PM 9.7128 -68.3893 202° Southwest  Level FlightAware Approximate
03:49PM 9.5946 -68.4387 202° Southwest  Level FlightAware Approximate
03:50PM 9.4765 -68.4880 202° Southwest  Level FlightAware Approximate
03:51PM 9.3583 -68.5372 202° Southwest  Level FlightAware Approximate
03:52PM 9.2402 -68.5864 202° Southwest  Level FlightAware Approximate
03:53PM 9.1220 -68.6356 202° Southwest  Level FlightAware Approximate
03:54PM 9.0038 -68.6848 202° Southwest  Level FlightAware Approximate
03:55PM 8.8856 -68.7339 202° Southwest  Level FlightAware Approximate
03:56PM 8.7674 -68.7830 202° Southwest  Level FlightAware Approximate
03:57PM 8.6490 -68.8315 202° Southwest  Level FlightAware Approximate
03:58PM 8.5306 -68.8800 202° Southwest  Level FlightAware Approximate
03:59PM 8.4121 -68.9284 202° Southwest  Level FlightAware Approximate
04:00PM 8.2937 -68.9768 202° Southwest  Level FlightAware Approximate
04:01PM 8.1752 -69.0252 202° Southwest  Level FlightAware Approximate
04:02PM 8.0568 -69.0736 202° Southwest  Level FlightAware Approximate
04:03PM 7.9383 -69.1219 202° Southwest  Level FlightAware Approximate
04:04PM 7.8198 -69.1702 202° Southwest  Level FlightAware Approximate
04:05PM 7.7014 -69.2185 202° Southwest  Level FlightAware Approximate
04:06PM 7.5829 -69.2667 202° Southwest  Level FlightAware Approximate
04:07PM 7.4644 -69.3149 202° Southwest  Level FlightAware Approximate
04:08PM 7.3459 -69.3631 202° Southwest  Level FlightAware Approximate
04:09PM 7.2274 -69.4113 202° Southwest  Level FlightAware Approximate
04:10PM 7.1089 -69.4594 202° Southwest  Level FlightAware Approximate
04:11PM 6.9904 -69.5073 202° Southwest  Level FlightAware Approximate
04:12PM 6.8717 -69.5549 202° Southwest  Level FlightAware Approximate
04:13PM 6.7530 -69.6025 202° Southwest  Level FlightAware Approximate
04:14PM 6.6343 -69.6501 202° Southwest  Level FlightAware Approximate
04:15PM 6.5156 -69.6977 202° Southwest  Level FlightAware Approximate
04:16PM 6.3969 -69.7453 202° Southwest  Level FlightAware Approximate
04:17PM 6.2782 -69.7928 202° Southwest  Level FlightAware Approximate
04:18PM 6.1595 -69.8403 202° Southwest  Level FlightAware Approximate
04:19PM 6.0408 -69.8878 202° Southwest  Level FlightAware Approximate
04:20PM 5.9220 -69.9352 202° Southwest  Level FlightAware Approximate
04:21PM 5.8033 -69.9827 202° Southwest  Level FlightAware Approximate
04:22PM 5.6846 -70.0301 202° Southwest  Level FlightAware Approximate
04:23PM 5.5659 -70.0775 202° Southwest  Level FlightAware Approximate
04:24PM 5.4471 -70.1249 202° Southwest  Level FlightAware Approximate
04:25PM 5.3284 -70.1722 202° Southwest  Level FlightAware Approximate
04:26PM 5.2096 -70.2196 202° Southwest  Level FlightAware Approximate
04:27PM 5.0909 -70.2669 202° Southwest  Level FlightAware Approximate
04:28PM 4.9721 -70.3142 202° Southwest  Level FlightAware Approximate
04:29PM 4.8534 -70.3615 202° Southwest  Level FlightAware Approximate
04:30PM 4.7346 -70.4088 202° Southwest  Level FlightAware Approximate
04:31PM 4.6159 -70.4561 202° Southwest  Level FlightAware Approximate
04:32PM 4.4971 -70.5033 202° Southwest  Level FlightAware Approximate
04:33PM 4.3783 -70.5506 202° Southwest  Level FlightAware Approximate
04:34PM 4.2596 -70.5978 202° Southwest  Level FlightAware Approximate
04:35PM 4.1408 -70.6450 202° Southwest  Level FlightAware Approximate
04:36PM 4.0220 -70.6922 202° Southwest  Level FlightAware Approximate
04:37PM 3.9032 -70.7393 202° Southwest  Level FlightAware Approximate
04:38PM 3.7845 -70.7865 202° Southwest  Level FlightAware Approximate
04:39PM 3.6657 -70.8336 202° Southwest  Level FlightAware Approximate
04:40PM 3.5469 -70.8808 202° Southwest  Level FlightAware Approximate
04:41PM 3.4281 -70.9279 202° Southwest  Level FlightAware Approximate
04:42PM 3.3093 -70.9750 202° Southwest  Level FlightAware Approximate
04:43PM 3.1905 -71.0221 202° Southwest  Level FlightAware Approximate
04:44PM 3.0717 -71.0692 202° Southwest  Level FlightAware Approximate
04:45PM 2.9529 -71.1163 202° Southwest  Level FlightAware Approximate
04:46PM 2.8341 -71.1634 202° Southwest  Level FlightAware Approximate
04:47PM 2.7153 -71.2104 202° Southwest  Level FlightAware Approximate
04:48PM 2.5965 -71.2575 202° Southwest  Level FlightAware Approximate
04:49PM 2.4777 -71.3045 202° Southwest  Level FlightAware Approximate
04:50PM 2.3589 -71.3515 202° Southwest  Level FlightAware Approximate
04:51PM 2.2401 -71.3986 202° Southwest  Level FlightAware Approximate
04:52PM 2.1213 -71.4456 202° Southwest  Level FlightAware Approximate
04:53PM 2.0025 -71.4926 202° Southwest  Level FlightAware Approximate
04:54PM 1.8837 -71.5396 202° Southwest  Level FlightAware Approximate
04:55PM 1.7649 -71.5866 202° Southwest  Level FlightAware Approximate
04:56PM 1.6461 -71.6336 202° Southwest  Level FlightAware Approximate
04:57PM 1.5273 -71.6806 202° Southwest  Level FlightAware Approximate
04:58PM 1.4084 -71.7275 202° Southwest  Level FlightAware Approximate
04:59PM 1.2896 -71.7745 202° Southwest  Level FlightAware Approximate
05:00PM 1.1708 -71.8215 202° Southwest  Level FlightAware Approximate
05:01PM 1.0520 -71.8684 202° Southwest  Level FlightAware Approximate
05:02PM 0.9332 -71.9154 202° Southwest  Level FlightAware Approximate
05:03PM 0.8143 -71.9624 202° Southwest  Level FlightAware Approximate
05:04PM 0.6955 -72.0093 202° Southwest  Level FlightAware Approximate
05:05PM 0.5767 -72.0563 202° Southwest  Level FlightAware Approximate
05:06PM 0.4579 -72.1032 202° Southwest  Level FlightAware Approximate
05:07PM 0.3391 -72.1502 202° Southwest  Level FlightAware Approximate
05:08PM 0.2202 -72.1971 202° Southwest  Level FlightAware Approximate
05:09PM 0.1014 -72.2441 202° Southwest  Level FlightAware Approximate
05:10PM -0.0174 -72.2910 202° Southwest  Level FlightAware Approximate
05:11PM -0.1362 -72.3380 202° Southwest  Level FlightAware Approximate
05:12PM -0.2550 -72.3849 202° Southwest  Level FlightAware Approximate
05:13PM -0.3739 -72.4319 202° Southwest  Level FlightAware Approximate
05:14PM -0.4927 -72.4788 202° Southwest  Level FlightAware Approximate
05:15PM -0.6115 -72.5258 202° Southwest  Level FlightAware Approximate
05:16PM -0.7303 -72.5727 202° Southwest  Level FlightAware Approximate
05:17PM -0.8491 -72.6197 202° Southwest  Level FlightAware Approximate
05:18PM -0.9680 -72.6667 202° Southwest  Level FlightAware Approximate
05:19PM -1.0868 -72.7136 202° Southwest  Level FlightAware Approximate
05:20PM -1.2056 -72.7606 202° Southwest  Level FlightAware Approximate
05:21PM -1.3244 -72.8076 202° Southwest  Level FlightAware Approximate
05:22PM -1.4432 -72.8545 202° Southwest  Level FlightAware Approximate
05:23PM -1.5621 -72.9015 202° Southwest  Level FlightAware Approximate
05:24PM -1.6809 -72.9485 202° Southwest  Level FlightAware Approximate
05:25PM -1.7997 -72.9955 202° Southwest  Level FlightAware Approximate
05:26PM -1.9185 -73.0425 202° Southwest  Level FlightAware Approximate
05:27PM -2.0373 -73.0895 202° Southwest  Level FlightAware Approximate
05:28PM -2.1561 -73.1365 202° Southwest  Level FlightAware Approximate
05:29PM -2.2749 -73.1835 202° Southwest  Level FlightAware Approximate
05:30PM -2.3937 -73.2306 202° Southwest  Level FlightAware Approximate
05:31PM -2.5125 -73.2776 202° Southwest  Level FlightAware Approximate
05:32PM -2.6313 -73.3246 202° Southwest  Level FlightAware Approximate
05:33PM -2.7501 -73.3717 202° Southwest  Level FlightAware Approximate
05:34PM -2.8689 -73.4187 202° Southwest  Level FlightAware Approximate
05:35PM -2.9877 -73.4658 202° Southwest  Level FlightAware Approximate
05:36PM -3.1065 -73.5129 202° Southwest  Level FlightAware Approximate
05:37PM -3.2253 -73.5600 202° Southwest  Level FlightAware Approximate
05:38PM -3.3441 -73.6071 202° Southwest  Level FlightAware Approximate
05:39PM -3.4629 -73.6542 202° Southwest  Level FlightAware Approximate
05:40PM -3.5817 -73.7013 202° Southwest  Level FlightAware Approximate
05:41PM -3.7005 -73.7485 202° Southwest  Level FlightAware Approximate
05:42PM -3.8193 -73.7956 202° Southwest  Level FlightAware Approximate
05:43PM -3.9380 -73.8428 202° Southwest  Level FlightAware Approximate
05:44PM -4.0568 -73.8900 202° Southwest  Level FlightAware Approximate
05:45PM -4.1756 -73.9371 202° Southwest  Level FlightAware Approximate
05:46PM -4.2944 -73.9844 202° Southwest  Level FlightAware Approximate
05:47PM -4.4131 -74.0316 202° Southwest  Level FlightAware Approximate
05:48PM -4.5319 -74.0788 202° Southwest  Level FlightAware Approximate
05:49PM -4.6507 -74.1261 202° Southwest  Level FlightAware Approximate
05:50PM -4.7694 -74.1733 202° Southwest  Level FlightAware Approximate
05:51PM -4.8882 -74.2206 202° Southwest  Level FlightAware Approximate
05:52PM -5.0069 -74.2679 202° Southwest  Level FlightAware Approximate
05:53PM -5.1257 -74.3152 202° Southwest  Level FlightAware Approximate
05:54PM -5.2444 -74.3626 202° Southwest  Level FlightAware Approximate
05:55PM -5.3632 -74.4099 202° Southwest  Level FlightAware Approximate
05:56PM -5.4819 -74.4573 202° Southwest  Level FlightAware Approximate
05:57PM -5.6006 -74.5047 202° Southwest  Level FlightAware Approximate
05:58PM -5.7194 -74.5521 202° Southwest  Level FlightAware Approximate
05:59PM -5.8381 -74.5995 202° Southwest  Level FlightAware Approximate
06:00PM -5.9568 -74.6470 202° Southwest  Level FlightAware Approximate
06:01PM -6.0755 -74.6945 202° Southwest  Level FlightAware Approximate
06:02PM -6.1942 -74.7419 202° Southwest  Level FlightAware Approximate
06:03PM -6.3130 -74.7895 202° Southwest  Level FlightAware Approximate
06:04PM -6.4317 -74.8370 202° Southwest  Level FlightAware Approximate
06:05PM -6.5504 -74.8845 202° Southwest  Level FlightAware Approximate
06:06PM -6.6691 -74.9321 202° Southwest  Level FlightAware Approximate
06:07PM -6.7877 -74.9797 202° Southwest  Level FlightAware Approximate
06:08PM -6.9064 -75.0274 202° Southwest  Level FlightAware Approximate
06:09PM -7.0251 -75.0750 202° Southwest  Level FlightAware Approximate
06:10PM -7.1438 -75.1227 202° Southwest  Level FlightAware Approximate
06:11PM -7.2625 -75.1704 202° Southwest  Level FlightAware Approximate
06:12PM -7.3811 -75.2181 202° Southwest  Level FlightAware Approximate
06:13PM -7.4998 -75.2658 202° Southwest  Level FlightAware Approximate
06:14PM -7.6185 -75.3136 202° Southwest  Level FlightAware Approximate
06:15PM -7.7371 -75.3614 202° Southwest  Level FlightAware Approximate
06:16PM -7.8558 -75.4092 202° Southwest  Level FlightAware Approximate
06:17PM -7.9744 -75.4571 202° Southwest  Level FlightAware Approximate
06:18PM -8.0930 -75.5050 202° Southwest  Level FlightAware Approximate
06:19PM -8.2117 -75.5529 202° Southwest  Level FlightAware Approximate
06:20PM -8.3303 -75.6008 202° Southwest  Level FlightAware Approximate
06:21PM -8.4489 -75.6488 202° Southwest  Level FlightAware Approximate
06:22PM -8.5675 -75.6968 202° Southwest  Level FlightAware Approximate
06:23PM -8.6861 -75.7448 202° Southwest  Level FlightAware Approximate
06:24PM -8.8047 -75.7929 202° Southwest  Level FlightAware Approximate
06:25PM -8.9233 -75.8410 202° Southwest  Level FlightAware Approximate
06:26PM -9.0419 -75.8891 202° Southwest  Level FlightAware Approximate
06:27PM -9.1605 -75.9373 202° Southwest  Level FlightAware Approximate
06:28PM -9.2791 -75.9855 202° Southwest  Level FlightAware Approximate
06:29PM -9.3977 -76.0337 202° Southwest  Level FlightAware Approximate
06:30PM -9.5162 -76.0819 202° Southwest  Level FlightAware Approximate
06:31PM -9.6348 -76.1302 202° Southwest  Level FlightAware Approximate
06:32PM -9.7535 -76.1781 202° Southwest  Level FlightAware Approximate
06:33PM -9.8724 -76.2256 201° Southwest  Level FlightAware Approximate
06:34PM -9.9913 -76.2731 201° Southwest  Level FlightAware Approximate
06:34PM -11.0520 -77.1300 202° Southwest 409 471 17,800  Level FlightAware
06:35PM -10.1101 -76.3207 202° Southwest  Level FlightAware Approximate
06:35PM -11.1630 -77.1910 208° Southwest 408 470 16,000  Level FlightAware
06:36PM -11.2140 -77.2180 207° Southwest 408 470 16,000  Level FlightAware
06:36PM -11.2820 -77.2550 208° Southwest 408 470 16,000  Level FlightAware
06:37PM -11.3320 -77.2820 208° Southwest 408 470 16,000  Level FlightAware
06:38PM -11.4000 -77.3190 208° Southwest 408 470 16,000  Level FlightAware
06:40PM -11.6128 -77.2491 162° South  Level Estimated
06:41PM -11.7344 -77.2091 162° South  Level Estimated
06:42PM -11.8560 -77.1690 162° South  Level Estimated
06:43PM -11.9776 -77.1289 162° South  Level Estimated
06:44PM -12.0219 -77.1143 162° South  Level Estimated
06:45PM -12.0219 -77.1143 44° Northeast  Level Estimated
06:46PM -12.0219 -77.1143 44° Northeast  Level Estimated
06:47PM -12.0219 -77.1143 44° Northeast  Level Estimated
06:48PM -12.0219 -77.1143 44° Northeast  Level Estimated
06:49PM -12.0219 -77.1143 44° Northeast  Level Estimated
06:50PM -12.0219 -77.1143 44° Northeast  Level Estimated
06:51PM -12.0219 -77.1143 44° Northeast  Level Estimated
06:52PM -12.0219 -77.1143 44° Northeast  Level Estimated
06:53PM -12.0219 -77.1143 44° Northeast  Level Estimated
06:54PM -12.0219 -77.1143 44° Northeast  Level Estimated